sensor_id;sensor_type;location;lat;lon;timestamp;temperature;humidity
578;DHT22;275;48.492;9.214;2023-04-03T00:00:29;7.10;37.00
578;DHT22;275;48.492;9.214;2023-04-03T00:02:57;7.40;36.00
578;DHT22;275;48.492;9.214;2023-04-03T00:05:23;7.60;35.60
578;DHT22;275;48.492;9.214;2023-04-03T00:07:50;7.50;35.90
578;DHT22;275;48.492;9.214;2023-04-03T00:10:19;7.60;35.50
578;DHT22;275;48.492;9.214;2023-04-03T00:12:45;7.80;35.10
578;DHT22;275;48.492;9.214;2023-04-03T00:15:12;7.60;35.80
578;DHT22;275;48.492;9.214;2023-04-03T00:17:39;7.40;36.00
578;DHT22;275;48.492;9.214;2023-04-03T00:20:07;7.30;36.50
578;DHT22;275;48.492;9.214;2023-04-03T00:22:34;7.00;37.20
578;DHT22;275;48.492;9.214;2023-04-03T00:25:01;6.90;37.20
578;DHT22;275;48.492;9.214;2023-04-03T00:27:29;7.00;37.00
578;DHT22;275;48.492;9.214;2023-04-03T00:29:56;7.50;36.10
578;DHT22;275;48.492;9.214;2023-04-03T00:32:22;7.80;35.50
578;DHT22;275;48.492;9.214;2023-04-03T00:34:49;8.00;34.60
578;DHT22;275;48.492;9.214;2023-04-03T00:37:16;8.00;34.50
578;DHT22;275;48.492;9.214;2023-04-03T00:39:43;7.40;35.80
578;DHT22;275;48.492;9.214;2023-04-03T00:42:10;6.90;37.10
578;DHT22;275;48.492;9.214;2023-04-03T00:47:42;7.10;37.00
578;DHT22;275;48.492;9.214;2023-04-03T00:50:11;7.20;36.50
578;DHT22;275;48.492;9.214;2023-04-03T00:52:38;7.10;36.90
578;DHT22;275;48.492;9.214;2023-04-03T00:55:07;7.20;36.30
578;DHT22;275;48.492;9.214;2023-04-03T00:57:35;7.20;36.60
578;DHT22;275;48.492;9.214;2023-04-03T01:00:07;7.40;36.70
578;DHT22;275;48.492;9.214;2023-04-03T01:02:35;7.40;36.00
578;DHT22;275;48.492;9.214;2023-04-03T01:05:04;7.50;35.90
578;DHT22;275;48.492;9.214;2023-04-03T01:07:32;7.80;35.10
578;DHT22;275;48.492;9.214;2023-04-03T01:10:05;7.00;36.90
578;DHT22;275;48.492;9.214;2023-04-03T01:12:34;6.50;37.80
578;DHT22;275;48.492;9.214;2023-04-03T01:15:06;6.40;38.30
578;DHT22;275;48.492;9.214;2023-04-03T01:17:35;6.70;37.70
578;DHT22;275;48.492;9.214;2023-04-03T01:20:21;6.20;38.90
578;DHT22;275;48.492;9.214;2023-04-03T01:22:56;6.40;38.40
578;DHT22;275;48.492;9.214;2023-04-03T01:25:25;6.60;37.80
578;DHT22;275;48.492;9.214;2023-04-03T01:27:52;6.90;37.10
578;DHT22;275;48.492;9.214;2023-04-03T01:30:21;6.60;37.70
578;DHT22;275;48.492;9.214;2023-04-03T01:32:52;6.60;37.80
578;DHT22;275;48.492;9.214;2023-04-03T01:35:18;6.90;36.90
578;DHT22;275;48.492;9.214;2023-04-03T01:37:45;7.20;36.00
578;DHT22;275;48.492;9.214;2023-04-03T01:40:12;6.50;37.30
578;DHT22;275;48.492;9.214;2023-04-03T01:42:39;6.10;38.40
578;DHT22;275;48.492;9.214;2023-04-03T01:45:07;5.90;39.30
578;DHT22;275;48.492;9.214;2023-04-03T01:47:33;6.10;39.10
578;DHT22;275;48.492;9.214;2023-04-03T01:50:02;6.50;37.90
578;DHT22;275;48.492;9.214;2023-04-03T01:52:29;6.70;37.40
578;DHT22;275;48.492;9.214;2023-04-03T01:54:56;6.70;37.40
578;DHT22;275;48.492;9.214;2023-04-03T01:57:22;6.40;38.00
578;DHT22;275;48.492;9.214;2023-04-03T01:59:49;6.50;37.80
578;DHT22;275;48.492;9.214;2023-04-03T02:02:17;6.80;37.00
578;DHT22;275;48.492;9.214;2023-04-03T02:04:45;6.90;36.70
578;DHT22;275;48.492;9.214;2023-04-03T02:07:14;6.60;37.00
578;DHT22;275;48.492;9.214;2023-04-03T02:09:41;6.70;36.80
578;DHT22;275;48.492;9.214;2023-04-03T02:12:08;7.00;36.40
578;DHT22;275;48.492;9.214;2023-04-03T02:14:34;7.20;35.40
578;DHT22;275;48.492;9.214;2023-04-03T02:17:02;6.90;36.20
578;DHT22;275;48.492;9.214;2023-04-03T02:19:30;6.70;36.80
578;DHT22;275;48.492;9.214;2023-04-03T02:21:57;7.30;35.50
578;DHT22;275;48.492;9.214;2023-04-03T02:24:25;7.20;35.70
578;DHT22;275;48.492;9.214;2023-04-03T02:26:53;7.40;35.40
578;DHT22;275;48.492;9.214;2023-04-03T02:29:20;7.50;35.00
578;DHT22;275;48.492;9.214;2023-04-03T02:31:46;7.60;34.60
578;DHT22;275;48.492;9.214;2023-04-03T02:34:13;7.80;34.00
578;DHT22;275;48.492;9.214;2023-04-03T02:36:40;7.50;34.60
578;DHT22;275;48.492;9.214;2023-04-03T02:39:07;7.70;34.50
578;DHT22;275;48.492;9.214;2023-04-03T02:41:36;7.50;34.60
578;DHT22;275;48.492;9.214;2023-04-03T02:44:04;7.50;35.00
578;DHT22;275;48.492;9.214;2023-04-03T02:46:31;7.50;35.00
578;DHT22;275;48.492;9.214;2023-04-03T02:48:58;6.60;37.10
578;DHT22;275;48.492;9.214;2023-04-03T02:51:25;5.80;39.50
578;DHT22;275;48.492;9.214;2023-04-03T02:53:52;6.30;38.60
578;DHT22;275;48.492;9.214;2023-04-03T02:56:18;6.70;37.10
578;DHT22;275;48.492;9.214;2023-04-03T02:58:47;7.00;36.30
578;DHT22;275;48.492;9.214;2023-04-03T03:01:14;6.90;36.30
578;DHT22;275;48.492;9.214;2023-04-03T03:03:41;6.60;37.20
578;DHT22;275;48.492;9.214;2023-04-03T03:06:09;6.70;37.10
578;DHT22;275;48.492;9.214;2023-04-03T03:08:37;7.00;36.30
578;DHT22;275;48.492;9.214;2023-04-03T03:11:04;6.80;36.00
578;DHT22;275;48.492;9.214;2023-04-03T03:13:31;6.60;36.70
578;DHT22;275;48.492;9.214;2023-04-03T03:16:00;5.80;38.70
578;DHT22;275;48.492;9.214;2023-04-03T03:18:27;5.90;38.80
578;DHT22;275;48.492;9.214;2023-04-03T03:20:54;5.90;38.50
578;DHT22;275;48.492;9.214;2023-04-03T03:23:22;5.50;39.40
578;DHT22;275;48.492;9.214;2023-04-03T03:25:54;5.30;40.20
578;DHT22;275;48.492;9.214;2023-04-03T03:28:21;5.60;39.50
578;DHT22;275;48.492;9.214;2023-04-03T03:30:48;6.00;38.00
578;DHT22;275;48.492;9.214;2023-04-03T03:33:17;6.10;37.90
578;DHT22;275;48.492;9.214;2023-04-03T03:35:44;5.60;39.00
578;DHT22;275;48.492;9.214;2023-04-03T03:38:10;6.10;37.90
578;DHT22;275;48.492;9.214;2023-04-03T03:40:37;5.70;39.10
578;DHT22;275;48.492;9.214;2023-04-03T03:43:04;5.60;39.20
578;DHT22;275;48.492;9.214;2023-04-03T03:45:31;5.50;39.30
578;DHT22;275;48.492;9.214;2023-04-03T03:47:58;5.20;40.30
578;DHT22;275;48.492;9.214;2023-04-03T03:50:26;5.30;40.30
578;DHT22;275;48.492;9.214;2023-04-03T03:52:53;5.80;38.90
578;DHT22;275;48.492;9.214;2023-04-03T03:55:20;6.10;38.00
578;DHT22;275;48.492;9.214;2023-04-03T03:57:47;6.30;37.40
578;DHT22;275;48.492;9.214;2023-04-03T04:00:14;6.30;37.10
578;DHT22;275;48.492;9.214;2023-04-03T04:02:41;6.10;37.90
578;DHT22;275;48.492;9.214;2023-04-03T04:05:09;5.90;38.20
578;DHT22;275;48.492;9.214;2023-04-03T04:07:37;5.70;38.70
578;DHT22;275;48.492;9.214;2023-04-03T04:10:05;5.60;38.90
578;DHT22;275;48.492;9.214;2023-04-03T04:12:32;5.60;39.00
578;DHT22;275;48.492;9.214;2023-04-03T04:15:01;6.00;37.40
578;DHT22;275;48.492;9.214;2023-04-03T04:17:27;6.00;37.70
578;DHT22;275;48.492;9.214;2023-04-03T04:19:54;5.60;38.00
578;DHT22;275;48.492;9.214;2023-04-03T04:22:21;5.80;37.70
578;DHT22;275;48.492;9.214;2023-04-03T04:24:49;6.40;36.30
578;DHT22;275;48.492;9.214;2023-04-03T04:27:16;6.70;35.50
578;DHT22;275;48.492;9.214;2023-04-03T04:29:43;6.80;34.30
578;DHT22;275;48.492;9.214;2023-04-03T04:32:10;6.10;35.00
578;DHT22;275;48.492;9.214;2023-04-03T04:34:37;6.00;35.30
578;DHT22;275;48.492;9.214;2023-04-03T04:37:06;6.10;35.20
578;DHT22;275;48.492;9.214;2023-04-03T04:39:33;6.00;34.60
578;DHT22;275;48.492;9.214;2023-04-03T04:42:01;6.10;34.40
578;DHT22;275;48.492;9.214;2023-04-03T04:44:28;6.10;33.80
578;DHT22;275;48.492;9.214;2023-04-03T04:46:55;5.70;34.70
578;DHT22;275;48.492;9.214;2023-04-03T04:49:21;5.50;35.20
578;DHT22;275;48.492;9.214;2023-04-03T04:51:48;5.40;35.70
578;DHT22;275;48.492;9.214;2023-04-03T04:54:15;5.80;34.70
578;DHT22;275;48.492;9.214;2023-04-03T04:56:42;5.60;35.30
578;DHT22;275;48.492;9.214;2023-04-03T04:59:10;5.80;34.70
578;DHT22;275;48.492;9.214;2023-04-03T05:01:37;5.90;34.80
578;DHT22;275;48.492;9.214;2023-04-03T05:04:04;6.00;34.40
578;DHT22;275;48.492;9.214;2023-04-03T05:06:31;6.10;33.90
578;DHT22;275;48.492;9.214;2023-04-03T05:08:58;6.30;33.40
578;DHT22;275;48.492;9.214;2023-04-03T05:11:25;6.30;33.70
578;DHT22;275;48.492;9.214;2023-04-03T05:13:52;6.10;34.50
578;DHT22;275;48.492;9.214;2023-04-03T05:16:20;5.70;35.10
578;DHT22;275;48.492;9.214;2023-04-03T05:18:47;5.60;36.10
578;DHT22;275;48.492;9.214;2023-04-03T05:21:14;5.80;35.50
578;DHT22;275;48.492;9.214;2023-04-03T05:23:41;5.90;35.50
578;DHT22;275;48.492;9.214;2023-04-03T05:26:07;6.00;35.30
578;DHT22;275;48.492;9.214;2023-04-03T05:28:34;5.90;35.70
578;DHT22;275;48.492;9.214;2023-04-03T05:31:02;5.90;35.40
578;DHT22;275;48.492;9.214;2023-04-03T05:33:30;5.90;35.90
578;DHT22;275;48.492;9.214;2023-04-03T05:36:02;6.10;35.00
578;DHT22;275;48.492;9.214;2023-04-03T05:38:29;6.50;34.20
578;DHT22;275;48.492;9.214;2023-04-03T05:40:56;7.00;32.20
578;DHT22;275;48.492;9.214;2023-04-03T05:43:22;6.60;32.60
578;DHT22;275;48.492;9.214;2023-04-03T05:45:50;6.50;32.70
578;DHT22;275;48.492;9.214;2023-04-03T05:51:19;7.00;31.40
578;DHT22;275;48.492;9.214;2023-04-03T05:53:47;6.60;30.80
578;DHT22;275;48.492;9.214;2023-04-03T05:56:14;6.70;29.40
578;DHT22;275;48.492;9.214;2023-04-03T05:58:40;6.50;29.40
578;DHT22;275;48.492;9.214;2023-04-03T06:01:07;6.40;29.90
578;DHT22;275;48.492;9.214;2023-04-03T06:03:34;6.20;29.20
578;DHT22;275;48.492;9.214;2023-04-03T06:06:03;5.90;30.90
578;DHT22;275;48.492;9.214;2023-04-03T06:08:32;6.20;31.00
578;DHT22;275;48.492;9.214;2023-04-03T06:11:00;6.70;29.90
578;DHT22;275;48.492;9.214;2023-04-03T06:13:28;6.30;29.30
578;DHT22;275;48.492;9.214;2023-04-03T06:15:55;6.30;27.80
578;DHT22;275;48.492;9.214;2023-04-03T06:18:22;5.70;28.40
578;DHT22;275;48.492;9.214;2023-04-03T06:20:49;5.80;29.50
578;DHT22;275;48.492;9.214;2023-04-03T06:23:16;6.30;29.00
578;DHT22;275;48.492;9.214;2023-04-03T06:25:44;7.00;29.20
578;DHT22;275;48.492;9.214;2023-04-03T06:28:11;7.50;28.80
578;DHT22;275;48.492;9.214;2023-04-03T06:30:38;7.80;28.50
578;DHT22;275;48.492;9.214;2023-04-03T06:33:05;8.20;27.50
578;DHT22;275;48.492;9.214;2023-04-03T06:35:32;7.70;27.70
578;DHT22;275;48.492;9.214;2023-04-03T06:38:00;7.10;28.70
578;DHT22;275;48.492;9.214;2023-04-03T06:40:27;6.90;29.40
578;DHT22;275;48.492;9.214;2023-04-03T06:42:55;6.70;30.00
578;DHT22;275;48.492;9.214;2023-04-03T06:45:22;6.80;30.00
578;DHT22;275;48.492;9.214;2023-04-03T06:47:51;6.40;30.60
578;DHT22;275;48.492;9.214;2023-04-03T06:50:17;6.60;30.40
578;DHT22;275;48.492;9.214;2023-04-03T06:52:45;6.50;30.70
578;DHT22;275;48.492;9.214;2023-04-03T06:55:12;6.50;30.90
578;DHT22;275;48.492;9.214;2023-04-03T06:57:38;6.40;31.10
578;DHT22;275;48.492;9.214;2023-04-03T07:00:08;6.30;31.60
578;DHT22;275;48.492;9.214;2023-04-03T07:02:36;6.30;31.40
578;DHT22;275;48.492;9.214;2023-04-03T07:05:03;7.10;32.50
578;DHT22;275;48.492;9.214;2023-04-03T07:07:31;7.60;29.60
578;DHT22;275;48.492;9.214;2023-04-03T07:09:59;7.80;29.50
578;DHT22;275;48.492;9.214;2023-04-03T07:12:26;7.80;29.50
578;DHT22;275;48.492;9.214;2023-04-03T07:14:53;7.30;29.30
578;DHT22;275;48.492;9.214;2023-04-03T07:17:21;7.40;29.40
578;DHT22;275;48.492;9.214;2023-04-03T07:19:47;7.50;28.80
578;DHT22;275;48.492;9.214;2023-04-03T07:22:14;7.10;28.80
578;DHT22;275;48.492;9.214;2023-04-03T07:24:41;7.20;29.90
578;DHT22;275;48.492;9.214;2023-04-03T07:27:08;7.20;29.60
578;DHT22;275;48.492;9.214;2023-04-03T07:29:38;7.40;29.20
578;DHT22;275;48.492;9.214;2023-04-03T07:32:05;7.40;29.00
578;DHT22;275;48.492;9.214;2023-04-03T07:34:33;7.20;29.90
578;DHT22;275;48.492;9.214;2023-04-03T07:37:00;7.30;29.30
578;DHT22;275;48.492;9.214;2023-04-03T07:39:28;7.40;29.20
578;DHT22;275;48.492;9.214;2023-04-03T07:41:55;7.70;28.30
578;DHT22;275;48.492;9.214;2023-04-03T07:44:22;7.80;28.50
578;DHT22;275;48.492;9.214;2023-04-03T07:46:49;8.10;28.30
578;DHT22;275;48.492;9.214;2023-04-03T07:49:16;8.20;29.20
578;DHT22;275;48.492;9.214;2023-04-03T07:51:44;9.70;29.90
578;DHT22;275;48.492;9.214;2023-04-03T07:54:12;9.80;26.50
578;DHT22;275;48.492;9.214;2023-04-03T07:56:39;10.20;24.60
578;DHT22;275;48.492;9.214;2023-04-03T07:59:06;11.30;23.90
578;DHT22;275;48.492;9.214;2023-04-03T08:01:33;9.80;24.90
578;DHT22;275;48.492;9.214;2023-04-03T08:04:00;9.40;25.80
578;DHT22;275;48.492;9.214;2023-04-03T08:06:27;9.50;25.90
578;DHT22;275;48.492;9.214;2023-04-03T08:08:56;9.30;25.40
578;DHT22;275;48.492;9.214;2023-04-03T08:11:24;8.40;27.70
578;DHT22;275;48.492;9.214;2023-04-03T08:13:52;8.30;27.20
578;DHT22;275;48.492;9.214;2023-04-03T08:16:21;8.50;27.10
578;DHT22;275;48.492;9.214;2023-04-03T08:18:48;9.00;26.70
578;DHT22;275;48.492;9.214;2023-04-03T08:21:16;9.70;25.60
578;DHT22;275;48.492;9.214;2023-04-03T08:23:43;9.80;25.30
578;DHT22;275;48.492;9.214;2023-04-03T08:26:13;9.00;27.00
578;DHT22;275;48.492;9.214;2023-04-03T08:28:40;9.20;26.40
578;DHT22;275;48.492;9.214;2023-04-03T08:31:10;9.00;26.10
578;DHT22;275;48.492;9.214;2023-04-03T08:33:38;9.10;25.60
578;DHT22;275;48.492;9.214;2023-04-03T08:36:06;8.90;26.00
578;DHT22;275;48.492;9.214;2023-04-03T08:38:34;9.30;26.30
578;DHT22;275;48.492;9.214;2023-04-03T08:41:12;8.70;26.60
578;DHT22;275;48.492;9.214;2023-04-03T08:43:58;8.40;27.60
578;DHT22;275;48.492;9.214;2023-04-03T08:46:47;8.30;27.70
578;DHT22;275;48.492;9.214;2023-04-03T08:49:22;8.30;27.90
578;DHT22;275;48.492;9.214;2023-04-03T08:51:51;8.40;27.20
578;DHT22;275;48.492;9.214;2023-04-03T08:54:26;8.00;27.30
578;DHT22;275;48.492;9.214;2023-04-03T08:56:56;7.90;26.80
578;DHT22;275;48.492;9.214;2023-04-03T08:59:27;7.80;27.00
578;DHT22;275;48.492;9.214;2023-04-03T09:01:58;7.10;28.40
578;DHT22;275;48.492;9.214;2023-04-03T09:04:26;7.70;27.80
578;DHT22;275;48.492;9.214;2023-04-03T09:06:56;9.20;25.70
578;DHT22;275;48.492;9.214;2023-04-03T09:09:31;9.10;25.90
578;DHT22;275;48.492;9.214;2023-04-03T09:12:06;8.40;26.90
578;DHT22;275;48.492;9.214;2023-04-03T09:14:39;7.30;28.30
578;DHT22;275;48.492;9.214;2023-04-03T09:17:14;7.10;28.10
578;DHT22;275;48.492;9.214;2023-04-03T09:19:49;7.50;27.70
578;DHT22;275;48.492;9.214;2023-04-03T09:22:22;8.00;27.30
578;DHT22;275;48.492;9.214;2023-04-03T09:24:55;8.00;26.90
578;DHT22;275;48.492;9.214;2023-04-03T09:27:24;7.50;27.50
578;DHT22;275;48.492;9.214;2023-04-03T09:29:53;7.70;27.40
578;DHT22;275;48.492;9.214;2023-04-03T09:32:26;7.90;27.60
578;DHT22;275;48.492;9.214;2023-04-03T09:34:55;8.60;26.50
578;DHT22;275;48.492;9.214;2023-04-03T09:37:38;9.00;26.00
578;DHT22;275;48.492;9.214;2023-04-03T09:40:12;9.10;25.80
578;DHT22;275;48.492;9.214;2023-04-03T09:42:56;8.10;27.60
578;DHT22;275;48.492;9.214;2023-04-03T09:45:25;7.70;28.40
578;DHT22;275;48.492;9.214;2023-04-03T09:48:08;7.70;28.20
578;DHT22;275;48.492;9.214;2023-04-03T09:50:36;7.90;27.60
578;DHT22;275;48.492;9.214;2023-04-03T09:53:11;7.50;28.40
578;DHT22;275;48.492;9.214;2023-04-03T09:55:52;7.30;29.70
578;DHT22;275;48.492;9.214;2023-04-03T09:58:29;7.80;28.20
578;DHT22;275;48.492;9.214;2023-04-03T10:00:57;8.20;27.70
578;DHT22;275;48.492;9.214;2023-04-03T10:03:28;8.00;28.40
578;DHT22;275;48.492;9.214;2023-04-03T10:05:56;8.00;28.60
578;DHT22;275;48.492;9.214;2023-04-03T10:08:26;8.10;28.40
578;DHT22;275;48.492;9.214;2023-04-03T10:11:15;8.20;27.70
578;DHT22;275;48.492;9.214;2023-04-03T10:13:57;8.00;28.60
578;DHT22;275;48.492;9.214;2023-04-03T10:16:34;7.60;27.90
578;DHT22;275;48.492;9.214;2023-04-03T10:19:18;7.90;27.90
578;DHT22;275;48.492;9.214;2023-04-03T10:21:50;8.20;26.80
578;DHT22;275;48.492;9.214;2023-04-03T10:24:25;8.40;27.00
578;DHT22;275;48.492;9.214;2023-04-03T10:26:58;8.40;27.30
578;DHT22;275;48.492;9.214;2023-04-03T10:29:40;8.30;26.90
578;DHT22;275;48.492;9.214;2023-04-03T10:32:17;8.40;26.70
578;DHT22;275;48.492;9.214;2023-04-03T10:34:47;9.00;25.50
578;DHT22;275;48.492;9.214;2023-04-03T10:37:20;9.20;25.60
578;DHT22;275;48.492;9.214;2023-04-03T10:39:53;8.80;24.90
578;DHT22;275;48.492;9.214;2023-04-03T10:42:28;9.00;25.00
578;DHT22;275;48.492;9.214;2023-04-03T10:45:15;8.50;25.80
578;DHT22;275;48.492;9.214;2023-04-03T10:47:55;8.20;26.00
578;DHT22;275;48.492;9.214;2023-04-03T10:50:35;8.20;26.10
578;DHT22;275;48.492;9.214;2023-04-03T10:53:09;8.50;25.80
578;DHT22;275;48.492;9.214;2023-04-03T10:55:44;8.00;25.90
578;DHT22;275;48.492;9.214;2023-04-03T10:58:18;7.70;26.40
578;DHT22;275;48.492;9.214;2023-04-03T11:00:49;7.70;25.80
578;DHT22;275;48.492;9.214;2023-04-03T11:03:27;8.10;25.30
578;DHT22;275;48.492;9.214;2023-04-03T11:05:59;8.40;25.00
578;DHT22;275;48.492;9.214;2023-04-03T11:08:29;8.30;24.70
578;DHT22;275;48.492;9.214;2023-04-03T11:11:01;8.10;24.80
578;DHT22;275;48.492;9.214;2023-04-03T11:13:33;8.10;24.60
578;DHT22;275;48.492;9.214;2023-04-03T11:16:02;8.20;25.20
578;DHT22;275;48.492;9.214;2023-04-03T11:18:35;8.50;24.20
578;DHT22;275;48.492;9.214;2023-04-03T11:21:08;8.90;23.50
578;DHT22;275;48.492;9.214;2023-04-03T11:23:40;9.20;23.40
578;DHT22;275;48.492;9.214;2023-04-03T11:26:10;8.80;24.40
578;DHT22;275;48.492;9.214;2023-04-03T11:28:38;8.80;24.80
578;DHT22;275;48.492;9.214;2023-04-03T11:31:20;8.10;25.40
578;DHT22;275;48.492;9.214;2023-04-03T11:33:58;7.80;25.90
578;DHT22;275;48.492;9.214;2023-04-03T11:36:32;7.50;26.80
578;DHT22;275;48.492;9.214;2023-04-03T11:39:05;7.80;25.90
578;DHT22;275;48.492;9.214;2023-04-03T11:41:34;7.80;25.90
578;DHT22;275;48.492;9.214;2023-04-03T11:44:04;8.00;26.00
578;DHT22;275;48.492;9.214;2023-04-03T11:46:52;8.30;25.40
578;DHT22;275;48.492;9.214;2023-04-03T11:49:54;8.20;25.10
578;DHT22;275;48.492;9.214;2023-04-03T11:53:02;8.00;24.80
578;DHT22;275;48.492;9.214;2023-04-03T11:55:53;7.70;25.40
578;DHT22;275;48.492;9.214;2023-04-03T11:58:21;7.30;25.80
578;DHT22;275;48.492;9.214;2023-04-03T12:01:00;7.20;26.30
578;DHT22;275;48.492;9.214;2023-04-03T12:06:53;7.80;25.00
578;DHT22;275;48.492;9.214;2023-04-03T12:09:24;7.90;25.10
578;DHT22;275;48.492;9.214;2023-04-03T12:11:52;8.20;24.60
578;DHT22;275;48.492;9.214;2023-04-03T12:14:22;9.00;23.60
578;DHT22;275;48.492;9.214;2023-04-03T12:16:49;9.20;23.20
578;DHT22;275;48.492;9.214;2023-04-03T12:19:32;9.20;23.30
578;DHT22;275;48.492;9.214;2023-04-03T12:22:22;8.90;22.90
578;DHT22;275;48.492;9.214;2023-04-03T12:24:50;9.80;22.90
578;DHT22;275;48.492;9.214;2023-04-03T12:27:23;9.30;23.00
578;DHT22;275;48.492;9.214;2023-04-03T12:29:55;8.50;23.70
578;DHT22;275;48.492;9.214;2023-04-03T12:32:32;8.50;24.00
578;DHT22;275;48.492;9.214;2023-04-03T12:35:14;8.50;23.40
578;DHT22;275;48.492;9.214;2023-04-03T12:38:01;8.40;23.70
578;DHT22;275;48.492;9.214;2023-04-03T12:40:36;8.50;23.70
578;DHT22;275;48.492;9.214;2023-04-03T12:43:18;9.00;23.80
578;DHT22;275;48.492;9.214;2023-04-03T12:45:51;8.60;22.80
578;DHT22;275;48.492;9.214;2023-04-03T12:48:24;8.30;23.30
578;DHT22;275;48.492;9.214;2023-04-03T12:50:52;8.40;23.20
578;DHT22;275;48.492;9.214;2023-04-03T12:53:22;8.40;23.90
578;DHT22;275;48.492;9.214;2023-04-03T12:55:54;8.90;22.90
578;DHT22;275;48.492;9.214;2023-04-03T12:58:23;8.90;22.40
578;DHT22;275;48.492;9.214;2023-04-03T13:01:02;8.60;23.20
578;DHT22;275;48.492;9.214;2023-04-03T13:03:30;8.20;23.50
578;DHT22;275;48.492;9.214;2023-04-03T13:05:59;8.40;23.40
578;DHT22;275;48.492;9.214;2023-04-03T13:08:29;8.30;23.70
578;DHT22;275;48.492;9.214;2023-04-03T13:10:58;8.30;23.20
578;DHT22;275;48.492;9.214;2023-04-03T13:13:26;8.50;22.80
578;DHT22;275;48.492;9.214;2023-04-03T13:15:53;8.20;22.90
578;DHT22;275;48.492;9.214;2023-04-03T13:18:26;8.10;22.90
578;DHT22;275;48.492;9.214;2023-04-03T13:20:57;8.00;23.30
578;DHT22;275;48.492;9.214;2023-04-03T13:23:28;8.20;23.50
578;DHT22;275;48.492;9.214;2023-04-03T13:25:56;8.40;22.60
578;DHT22;275;48.492;9.214;2023-04-03T13:28:27;8.60;22.70
578;DHT22;275;48.492;9.214;2023-04-03T13:31:02;8.30;22.80
578;DHT22;275;48.492;9.214;2023-04-03T13:33:31;8.10;23.50
578;DHT22;275;48.492;9.214;2023-04-03T13:36:03;7.80;23.60
578;DHT22;275;48.492;9.214;2023-04-03T13:38:32;8.10;23.40
578;DHT22;275;48.492;9.214;2023-04-03T13:41:01;8.10;23.10
578;DHT22;275;48.492;9.214;2023-04-03T13:43:34;8.30;23.10
578;DHT22;275;48.492;9.214;2023-04-03T13:46:05;8.10;23.00
578;DHT22;275;48.492;9.214;2023-04-03T13:48:41;8.00;23.70
578;DHT22;275;48.492;9.214;2023-04-03T13:51:19;7.80;23.60
578;DHT22;275;48.492;9.214;2023-04-03T13:53:51;7.60;23.80
578;DHT22;275;48.492;9.214;2023-04-03T13:56:23;8.10;23.80
578;DHT22;275;48.492;9.214;2023-04-03T13:59:02;8.80;22.40
578;DHT22;275;48.492;9.214;2023-04-03T14:01:42;8.40;22.60
578;DHT22;275;48.492;9.214;2023-04-03T14:04:14;7.80;22.90
578;DHT22;275;48.492;9.214;2023-04-03T14:06:41;7.80;23.10
578;DHT22;275;48.492;9.214;2023-04-03T14:09:09;8.20;23.10
578;DHT22;275;48.492;9.214;2023-04-03T14:11:36;8.60;22.60
578;DHT22;275;48.492;9.214;2023-04-03T14:14:11;8.30;23.80
578;DHT22;275;48.492;9.214;2023-04-03T14:16:41;8.60;23.20
578;DHT22;275;48.492;9.214;2023-04-03T14:19:18;8.30;23.10
578;DHT22;275;48.492;9.214;2023-04-03T14:21:45;8.60;23.00
578;DHT22;275;48.492;9.214;2023-04-03T14:24:14;8.80;22.60
578;DHT22;275;48.492;9.214;2023-04-03T14:26:42;8.70;22.60
578;DHT22;275;48.492;9.214;2023-04-03T14:29:10;8.40;23.00
578;DHT22;275;48.492;9.214;2023-04-03T14:31:37;8.20;23.40
578;DHT22;275;48.492;9.214;2023-04-03T14:34:04;8.50;23.60
578;DHT22;275;48.492;9.214;2023-04-03T14:36:32;8.70;22.90
578;DHT22;275;48.492;9.214;2023-04-03T14:39:00;8.50;22.90
578;DHT22;275;48.492;9.214;2023-04-03T14:41:29;9.50;21.70
578;DHT22;275;48.492;9.214;2023-04-03T14:43:56;9.70;21.10
578;DHT22;275;48.492;9.214;2023-04-03T14:46:25;9.50;21.90
578;DHT22;275;48.492;9.214;2023-04-03T14:48:53;9.30;21.70
578;DHT22;275;48.492;9.214;2023-04-03T14:51:20;9.30;21.50
578;DHT22;275;48.492;9.214;2023-04-03T14:53:47;8.80;22.10
578;DHT22;275;48.492;9.214;2023-04-03T14:56:17;9.10;21.70
578;DHT22;275;48.492;9.214;2023-04-03T14:58:49;9.10;21.90
578;DHT22;275;48.492;9.214;2023-04-03T15:01:19;9.00;21.50
578;DHT22;275;48.492;9.214;2023-04-03T15:03:47;8.70;21.80
578;DHT22;275;48.492;9.214;2023-04-03T15:06:14;8.60;21.20
578;DHT22;275;48.492;9.214;2023-04-03T15:08:42;8.70;21.60
578;DHT22;275;48.492;9.214;2023-04-03T15:11:10;8.40;21.80
578;DHT22;275;48.492;9.214;2023-04-03T15:13:37;8.30;21.50
578;DHT22;275;48.492;9.214;2023-04-03T15:16:10;8.50;21.10
578;DHT22;275;48.492;9.214;2023-04-03T15:18:39;8.20;21.60
578;DHT22;275;48.492;9.214;2023-04-03T15:21:06;8.50;21.50
578;DHT22;275;48.492;9.214;2023-04-03T15:23:33;9.10;21.00
578;DHT22;275;48.492;9.214;2023-04-03T15:26:00;9.00;20.80
578;DHT22;275;48.492;9.214;2023-04-03T15:28:30;8.50;21.50
578;DHT22;275;48.492;9.214;2023-04-03T15:30:57;7.90;22.20
578;DHT22;275;48.492;9.214;2023-04-03T15:33:26;8.40;22.00
578;DHT22;275;48.492;9.214;2023-04-03T15:35:53;8.60;21.70
578;DHT22;275;48.492;9.214;2023-04-03T15:38:20;8.50;22.00
578;DHT22;275;48.492;9.214;2023-04-03T15:40:47;8.30;21.90
578;DHT22;275;48.492;9.214;2023-04-03T15:43:15;8.20;21.50
578;DHT22;275;48.492;9.214;2023-04-03T15:45:42;8.20;21.70
578;DHT22;275;48.492;9.214;2023-04-03T15:48:10;8.10;21.50
578;DHT22;275;48.492;9.214;2023-04-03T15:50:40;7.90;22.30
578;DHT22;275;48.492;9.214;2023-04-03T15:53:07;8.00;21.90
578;DHT22;275;48.492;9.214;2023-04-03T15:55:35;8.10;21.80
578;DHT22;275;48.492;9.214;2023-04-03T15:58:03;8.20;21.60
578;DHT22;275;48.492;9.214;2023-04-03T16:00:31;8.00;21.80
578;DHT22;275;48.492;9.214;2023-04-03T16:03:00;8.00;21.80
578;DHT22;275;48.492;9.214;2023-04-03T16:05:30;8.30;21.10
578;DHT22;275;48.492;9.214;2023-04-03T16:07:59;8.70;21.00
578;DHT22;275;48.492;9.214;2023-04-03T16:10:27;8.70;20.50
578;DHT22;275;48.492;9.214;2023-04-03T16:12:54;8.10;21.80
578;DHT22;275;48.492;9.214;2023-04-03T16:15:21;7.70;22.00
578;DHT22;275;48.492;9.214;2023-04-03T16:17:49;8.30;21.60
578;DHT22;275;48.492;9.214;2023-04-03T16:20:16;8.50;20.50
578;DHT22;275;48.492;9.214;2023-04-03T16:22:44;8.00;21.40
578;DHT22;275;48.492;9.214;2023-04-03T16:25:12;7.90;21.70
578;DHT22;275;48.492;9.214;2023-04-03T16:27:39;7.90;21.80
578;DHT22;275;48.492;9.214;2023-04-03T16:30:07;8.00;20.90
578;DHT22;275;48.492;9.214;2023-04-03T16:32:34;7.80;21.50
578;DHT22;275;48.492;9.214;2023-04-03T16:35:02;7.60;21.60
578;DHT22;275;48.492;9.214;2023-04-03T16:37:29;7.80;21.30
578;DHT22;275;48.492;9.214;2023-04-03T16:39:56;7.60;21.20
578;DHT22;275;48.492;9.214;2023-04-03T16:42:25;7.80;21.00
578;DHT22;275;48.492;9.214;2023-04-03T16:44:51;7.70;20.80
578;DHT22;275;48.492;9.214;2023-04-03T16:47:18;7.70;21.50
578;DHT22;275;48.492;9.214;2023-04-03T16:49:46;7.50;21.30
578;DHT22;275;48.492;9.214;2023-04-03T16:52:13;7.70;20.80
578;DHT22;275;48.492;9.214;2023-04-03T16:54:40;8.00;20.50
578;DHT22;275;48.492;9.214;2023-04-03T16:57:07;8.10;20.30
578;DHT22;275;48.492;9.214;2023-04-03T16:59:36;7.80;20.90
578;DHT22;275;48.492;9.214;2023-04-03T17:02:03;8.00;20.30
578;DHT22;275;48.492;9.214;2023-04-03T17:04:29;7.90;20.70
578;DHT22;275;48.492;9.214;2023-04-03T17:06:56;8.10;20.50
578;DHT22;275;48.492;9.214;2023-04-03T17:09:25;7.90;20.80
578;DHT22;275;48.492;9.214;2023-04-03T17:11:52;8.70;19.80
578;DHT22;275;48.492;9.214;2023-04-03T17:14:19;9.00;19.50
578;DHT22;275;48.492;9.214;2023-04-03T17:16:47;8.40;20.00